Time;durP1;ratioP1;P1;durP2;ratioP2;P2;SDS_P1;SDS_P2;PMS_P1;PMS_P2;Temp;Humidity;BMP_temperature;BMP_pressure;BME280_temperature;BME280_humidity;BME280_pressure;Samples;Min_cycle;Max_cycle;Signal;HPM_P1;HPM_P2
2022/08/15 00:05:01;;;;;;;6.83;6.33;;;23.30;27.50;;;;;;10411172;28;20226;-77
2022/08/15 00:10:09;;;;;;;6.60;6.10;;;23.40;27.60;;;;;;10410486;28;20229;-77
2022/08/15 00:15:33;;;;;;;6.90;6.40;;;23.40;28.10;;;;;;10419502;28;20237;-77
2022/08/15 00:20:38;;;;;;;6.50;5.90;;;23.40;27.60;;;;;;10390505;28;20248;-75
2022/08/15 00:25:57;;;;;;;6.53;6.03;;;23.40;27.60;;;;;;10394787;28;20646;-75
2022/08/15 00:31:18;;;;;;;6.00;5.57;;;23.40;28.30;;;;;;10397215;28;20695;-75
2022/08/15 00:36:21;;;;;;;5.73;5.27;;;23.40;27.60;;;;;;10393636;28;20234;-76
2022/08/15 00:41:48;;;;;;;6.77;6.27;;;23.50;27.70;;;;;;10401780;28;20229;-76
2022/08/15 00:46:57;;;;;;;7.20;6.60;;;23.40;28.30;;;;;;10416370;28;20220;-75
2022/08/15 00:52:06;;;;;;;6.70;6.20;;;23.40;28.40;;;;;;10394597;28;20226;-76
2022/08/15 00:57:36;;;;;;;6.97;6.47;;;23.40;28.80;;;;;;10407790;28;20233;-76
2022/08/15 01:03:02;;;;;;;6.33;5.83;;;23.30;29.30;;;;;;10393877;28;20223;-76
2022/08/15 01:08:05;;;;;;;6.93;6.40;;;23.20;28.60;;;;;;10394791;28;20302;-76
2022/08/15 01:13:11;;;;;;;6.77;6.27;;;23.10;28.70;;;;;;10411945;28;20695;-75
2022/08/15 01:18:34;;;;;;;7.00;6.50;;;23.10;29.50;;;;;;10394524;28;20229;-76
2022/08/15 01:23:47;;;;;;;6.53;6.03;;;23.00;29.00;;;;;;10394890;28;20611;-76
2022/08/15 01:28:59;;;;;;;6.63;6.07;;;23.00;30.40;;;;;;10396821;28;20233;-77
2022/08/15 01:34:04;;;;;;;7.17;6.47;;;22.90;29.90;;;;;;10397065;28;20229;-76
2022/08/15 01:39:28;;;;;;;6.33;5.83;;;22.90;29.40;;;;;;10396815;28;20597;-76
2022/08/15 01:44:42;;;;;;;6.40;5.90;;;22.90;30.20;;;;;;10395795;28;20233;-76
2022/08/15 01:50:08;;;;;;;6.90;6.30;;;23.00;30.10;;;;;;10394448;28;21090;-76
2022/08/15 01:55:18;;;;;;;7.03;6.50;;;23.00;30.90;;;;;;10393470;28;20767;-76
2022/08/15 02:00:24;;;;;;;6.70;6.20;;;23.00;30.30;;;;;;10394394;28;20295;-76
2022/08/15 02:05:29;;;;;;;6.50;6.10;;;23.00;30.00;;;;;;10397054;28;20707;-77
2022/08/15 02:10:33;;;;;;;7.27;6.57;;;22.90;29.70;;;;;;10389639;28;20311;-76
2022/08/15 02:15:37;;;;;;;7.03;6.43;;;22.90;30.00;;;;;;10394811;28;20745;-76
2022/08/15 02:20:45;;;;;;;7.53;6.93;;;23.00;30.50;;;;;;10385868;28;20240;-77
2022/08/15 02:25:48;;;;;;;7.43;6.70;;;23.00;30.10;;;;;;10394154;28;20303;-77
2022/08/15 02:30:54;;;;;;;7.80;7.10;;;22.90;30.20;;;;;;10391780;28;20218;-76
2022/08/15 02:35:58;;;;;;;7.57;6.93;;;22.80;31.20;;;;;;10394980;28;20221;-76
2022/08/15 02:41:02;;;;;;;7.27;6.57;;;22.70;30.50;;;;;;10390530;28;20233;-76
2022/08/15 02:46:07;;;;;;;7.80;7.20;;;22.60;30.90;;;;;;10395691;28;20221;-76
2022/08/15 02:51:30;;;;;;;6.50;6.10;;;22.60;31.60;;;;;;10390789;28;20241;-77
2022/08/15 02:56:55;;;;;;;6.03;5.53;;;22.50;30.80;;;;;;10388362;28;20232;-77
2022/08/15 03:02:00;;;;;;;6.10;5.63;;;22.50;30.90;;;;;;10394842;28;20228;-76
2022/08/15 03:07:04;;;;;;;6.87;6.37;;;22.50;31.40;;;;;;10387314;28;20218;-77
2022/08/15 03:12:09;;;;;;;7.43;6.73;;;22.50;31.40;;;;;;10397529;28;20299;-76
2022/08/15 03:17:36;;;;;;;7.87;7.10;;;22.60;31.30;;;;;;10396630;28;20626;-75
2022/08/15 03:22:46;;;;;;;6.73;6.23;;;22.60;32.00;;;;;;10386597;28;20221;-75
2022/08/15 03:27:49;;;;;;;7.00;6.40;;;22.60;31.50;;;;;;10388150;28;20225;-75
2022/08/15 03:32:59;;;;;;;7.17;6.50;;;22.60;31.30;;;;;;10391438;28;20317;-75
2022/08/15 03:38:02;;;;;;;7.57;6.87;;;22.50;32.30;;;;;;10391526;28;20221;-75
2022/08/15 03:43:11;;;;;;;6.40;5.90;;;22.50;31.40;;;;;;10391166;28;20786;-75
2022/08/15 03:48:17;;;;;;;6.73;6.23;;;22.40;31.90;;;;;;10390882;28;20305;-75
2022/08/15 03:53:24;;;;;;;6.03;5.53;;;22.40;32.10;;;;;;10390838;28;20226;-75
2022/08/15 03:58:31;;;;;;;6.07;5.47;;;22.30;31.40;;;;;;10394455;28;20229;-75
2022/08/15 04:03:40;;;;;;;6.83;5.17;;;22.30;31.60;;;;;;10385064;28;20241;-75
2022/08/15 04:08:45;;;;;;;5.30;4.80;;;22.20;31.90;;;;;;10391018;28;20312;-75
2022/08/15 04:14:09;;;;;;;5.70;4.43;;;22.20;31.60;;;;;;10384951;28;20853;-75
2022/08/15 04:19:33;;;;;;;8.93;4.20;;;22.30;31.40;;;;;;10385286;28;20238;-75
2022/08/15 04:24:50;;;;;;;5.93;4.07;;;22.40;31.40;;;;;;10391773;28;20221;-75
2022/08/15 04:29:53;;;;;;;6.30;3.87;;;22.50;31.30;;;;;;10392104;28;20229;-75
2022/08/15 04:35:02;;;;;;;4.77;4.33;;;22.60;31.40;;;;;;10392647;28;20267;-75
2022/08/15 04:40:10;;;;;;;3.80;3.37;;;22.70;31.60;;;;;;10389956;28;20300;-76
2022/08/15 04:45:34;;;;;;;4.50;3.57;;;22.70;31.30;;;;;;10388447;28;20234;-76
2022/08/15 04:50:43;;;;;;;5.70;3.67;;;22.90;31.40;;;;;;10388003;28;20288;-76
2022/08/15 04:55:48;;;;;;;4.10;3.63;;;23.00;31.20;;;;;;10384500;28;20245;-75
2022/08/15 05:00:58;;;;;;;5.87;3.40;;;23.10;30.90;;;;;;10397736;28;20873;-76
2022/08/15 05:06:10;;;;;;;4.73;3.47;;;23.20;31.30;;;;;;10395704;28;20660;-76
2022/08/15 05:11:33;;;;;;;3.40;3.20;;;23.30;31.30;;;;;;10389764;28;20233;-76
2022/08/15 05:16:56;;;;;;;3.53;3.23;;;23.40;30.70;;;;;;10400893;28;20229;-76
2022/08/15 05:22:01;;;;;;;4.17;3.43;;;23.40;30.60;;;;;;10394170;28;20607;-76
2022/08/15 05:27:05;;;;;;;3.70;3.33;;;23.40;30.80;;;;;;10393003;28;20228;-76
2022/08/15 05:32:11;;;;;;;3.40;3.10;;;23.50;31.00;;;;;;10391792;28;20232;-76
2022/08/15 05:37:23;;;;;;;3.70;3.37;;;23.60;30.50;;;;;;10394296;28;20229;-76
2022/08/15 05:42:53;;;;;;;3.70;3.20;;;23.60;30.60;;;;;;10394802;28;20226;-76
2022/08/15 05:48:03;;;;;;;3.17;2.97;;;23.60;30.80;;;;;;10394357;28;20232;-76
2022/08/15 05:53:31;;;;;;;3.37;3.00;;;23.60;30.60;;;;;;10399016;28;20225;-76
2022/08/15 05:58:51;;;;;;;3.97;3.67;;;23.70;30.70;;;;;;10391220;28;20770;-76
2022/08/15 06:03:59;;;;;;;7.33;5.93;;;23.80;30.70;;;;;;10399116;28;20304;-76
2022/08/15 06:09:13;;;;;;;4.10;3.47;;;23.80;30.60;;;;;;10392159;28;20232;-76
2022/08/15 06:14:27;;;;;;;4.90;3.20;;;23.80;30.50;;;;;;10397279;28;20236;-76
2022/08/15 06:19:43;;;;;;;3.97;3.20;;;23.90;30.40;;;;;;10386213;28;20240;-76
2022/08/15 06:24:59;;;;;;;3.70;3.30;;;23.90;30.50;;;;;;10391750;28;20225;-76
2022/08/15 06:30:08;;;;;;;3.63;3.23;;;23.90;30.80;;;;;;10393874;28;20224;-76
2022/08/15 06:35:20;;;;;;;3.53;3.20;;;23.90;30.70;;;;;;10391379;28;20312;-76
2022/08/15 06:40:37;;;;;;;3.10;2.80;;;24.00;30.80;;;;;;10389952;28;20319;-76
2022/08/15 06:45:45;;;;;;;3.03;2.40;;;24.00;30.90;;;;;;10389321;28;20309;-76
2022/08/15 06:50:55;;;;;;;2.53;2.33;;;24.10;30.80;;;;;;10389998;28;20788;-76
2022/08/15 06:56:03;;;;;;;3.10;2.60;;;24.10;30.60;;;;;;10390156;28;20226;-76
2022/08/15 07:01:19;;;;;;;4.40;2.50;;;24.10;30.90;;;;;;10389833;28;20225;-76
2022/08/15 07:06:32;;;;;;;2.90;2.70;;;24.10;30.90;;;;;;10388575;28;20235;-76
2022/08/15 07:11:46;;;;;;;2.83;2.43;;;24.10;31.30;;;;;;10387732;28;20221;-76
2022/08/15 07:17:06;;;;;;;4.40;2.87;;;24.20;31.40;;;;;;10392654;28;20237;-76
2022/08/15 07:22:11;;;;;;;4.87;2.67;;;24.10;31.20;;;;;;10383289;28;20617;-76
2022/08/15 07:27:24;;;;;;;3.50;3.00;;;24.10;31.00;;;;;;10394249;28;20230;-76
2022/08/15 07:32:36;;;;;;;2.80;2.60;;;24.10;31.30;;;;;;10397171;28;20596;-76
2022/08/15 07:37:49;;;;;;;3.27;2.73;;;24.10;31.40;;;;;;10392150;28;20236;-76
2022/08/15 07:42:56;;;;;;;2.93;2.60;;;24.10;31.90;;;;;;10391016;28;20304;-75
2022/08/15 07:48:22;;;;;;;2.63;2.43;;;24.10;32.00;;;;;;10387228;28;20305;-76
2022/08/15 07:53:26;;;;;;;2.50;2.40;;;24.00;32.70;;;;;;10395633;28;20272;-76
2022/08/15 07:58:39;;;;;;;2.60;2.40;;;24.00;31.80;;;;;;10389071;28;20651;-76
2022/08/15 08:03:48;;;;;;;3.73;2.40;;;24.00;32.10;;;;;;10388160;28;20231;-76
2022/08/15 08:09:03;;;;;;;2.67;2.40;;;24.00;32.40;;;;;;10390742;28;20310;-76
2022/08/15 08:14:14;;;;;;;2.97;2.70;;;24.00;32.30;;;;;;10393027;28;20264;-76
2022/08/15 08:19:44;;;;;;;2.43;2.33;;;24.10;32.50;;;;;;10389233;28;20245;-76
2022/08/15 08:24:58;;;;;;;3.07;2.33;;;24.10;32.20;;;;;;10392455;28;20226;-76
2022/08/15 08:30:16;;;;;;;2.20;2.10;;;24.30;32.20;;;;;;10388883;28;20244;-76
2022/08/15 08:35:43;;;;;;;2.07;1.97;;;24.40;32.10;;;;;;10400795;28;20248;-76
2022/08/15 08:46:37;;;;;;;2.17;2.00;;;24.70;32.00;;;;;;10400790;28;20218;-75
2022/08/15 08:51:56;;;;;;;2.60;2.03;;;24.90;31.60;;;;;;10391688;28;20229;-76
2022/08/15 08:57:04;;;;;;;2.30;2.10;;;25.20;31.50;;;;;;10399660;28;20221;-76
2022/08/15 09:02:19;;;;;;;2.27;2.17;;;25.50;31.00;;;;;;10402493;28;20233;-76
2022/08/15 09:07:37;;;;;;;2.20;2.00;;;25.70;30.50;;;;;;10398836;28;20248;-76
2022/08/15 09:18:19;;;;;;;3.30;2.30;;;26.20;30.00;;;;;;10393597;28;20720;-76
2022/08/15 09:23:22;;;;;;;2.10;2.00;;;26.40;30.00;;;;;;10393020;28;20269;-76
2022/08/15 09:28:38;;;;;;;2.37;2.17;;;26.60;29.50;;;;;;10398489;28;20241;-76
2022/08/15 09:34:10;;;;;;;2.00;1.90;;;26.90;29.70;;;;;;10397223;28;20275;-76
2022/08/15 09:39:33;;;;;;;2.37;2.00;;;27.10;29.80;;;;;;10399488;28;20230;-76
2022/08/15 09:44:54;;;;;;;2.60;2.00;;;27.30;28.90;;;;;;10395285;28;20223;-76
2022/08/15 09:50:21;;;;;;;2.20;2.00;;;27.60;28.70;;;;;;10406921;28;20221;-76
2022/08/15 09:55:44;;;;;;;1.90;1.80;;;27.70;28.50;;;;;;10387433;28;20329;-76
2022/08/15 10:00:58;;;;;;;1.83;1.73;;;27.90;27.80;;;;;;10396757;28;20718;-76
2022/08/15 10:06:08;;;;;;;1.97;1.87;;;28.10;27.50;;;;;;10396410;28;20593;-76
2022/08/15 10:11:37;;;;;;;2.27;2.07;;;28.10;27.20;;;;;;10386726;28;20606;-76
2022/08/15 10:16:52;;;;;;;2.17;1.97;;;28.20;26.90;;;;;;10393021;28;20738;-76
2022/08/15 10:22:00;;;;;;;2.20;2.00;;;28.10;26.60;;;;;;10389625;28;20280;-76
2022/08/15 10:27:23;;;;;;;2.23;2.00;;;28.10;26.80;;;;;;10398666;28;20214;-76
2022/08/15 10:32:40;;;;;;;2.00;1.90;;;28.00;27.30;;;;;;10396226;28;20225;-76
2022/08/15 10:38:09;;;;;;;2.33;1.93;;;28.00;27.10;;;;;;10393007;28;20596;-76
2022/08/15 10:43:58;;;;;;;2.10;2.00;;;28.00;27.00;;;;;;10389635;28;20707;-76
2022/08/15 10:49:12;;;;;;;1.90;1.80;;;28.20;27.50;;;;;;10386235;28;20226;-76
2022/08/15 10:54:45;;;;;;;2.27;1.90;;;28.30;26.80;;;;;;10397445;28;20301;-76
2022/08/15 10:59:52;;;;;;;2.00;1.90;;;28.40;26.90;;;;;;10392941;28;20564;-76
2022/08/15 11:05:02;;;;;;;1.70;1.60;;;28.60;26.70;;;;;;10394819;28;20613;-76
2022/08/15 11:10:11;;;;;;;2.30;2.20;;;28.80;26.00;;;;;;10387969;28;20320;-76
2022/08/15 11:15:31;;;;;;;2.57;1.97;;;28.90;25.80;;;;;;10381461;28;20333;-76
2022/08/15 11:20:40;;;;;;;1.90;1.80;;;29.00;25.20;;;;;;10384808;28;20226;-77
2022/08/15 11:25:56;;;;;;;2.10;1.87;;;29.20;24.60;;;;;;10389220;28;20217;-76
2022/08/15 11:31:04;;;;;;;1.90;1.80;;;29.40;25.00;;;;;;10395536;28;20856;-76
2022/08/15 11:36:11;;;;;;;1.80;1.70;;;29.40;24.60;;;;;;10385467;28;20221;-76
2022/08/15 11:41:24;;;;;;;1.90;1.80;;;29.50;24.60;;;;;;10391287;28;20762;-76
2022/08/15 11:46:29;;;;;;;1.70;1.60;;;29.70;23.90;;;;;;10390691;28;20313;-76
2022/08/15 11:51:37;;;;;;;2.00;1.90;;;29.90;24.10;;;;;;10385486;28;20233;-76
2022/08/15 11:57:05;;;;;;;1.80;1.70;;;30.10;23.50;;;;;;10388147;28;20233;-76
2022/08/15 12:02:33;;;;;;;1.90;1.80;;;30.20;23.30;;;;;;10390501;28;20268;-76
2022/08/15 12:07:44;;;;;;;2.20;2.10;;;30.40;22.70;;;;;;10392437;28;20248;-76
2022/08/15 12:12:51;;;;;;;2.10;2.00;;;30.40;22.50;;;;;;10402629;28;20711;-77
2022/08/15 12:18:14;;;;;;;1.90;1.80;;;30.40;22.50;;;;;;10390390;28;20751;-77
2022/08/15 12:23:46;;;;;;;2.10;2.00;;;30.50;23.10;;;;;;10401200;28;20602;-76
2022/08/15 12:28:54;;;;;;;1.97;1.87;;;30.60;22.30;;;;;;10399126;28;20226;-77
2022/08/15 12:34:03;;;;;;;2.10;2.00;;;30.70;22.10;;;;;;10405985;28;20222;-76
2022/08/15 12:39:27;;;;;;;2.10;2.00;;;30.80;21.50;;;;;;10396322;28;20226;-76
2022/08/15 12:44:37;;;;;;;2.10;2.00;;;30.80;22.20;;;;;;10393516;28;20222;-75
2022/08/15 12:49:41;;;;;;;2.10;1.90;;;30.80;21.60;;;;;;10393553;28;20233;-77
2022/08/15 12:54:51;;;;;;;2.10;2.00;;;30.90;23.00;;;;;;10399230;28;20306;-77
2022/08/15 12:59:58;;;;;;;2.10;2.00;;;30.90;22.30;;;;;;10393581;28;20348;-77
2022/08/15 13:05:01;;;;;;;2.57;2.00;;;31.00;21.60;;;;;;10396976;28;20222;-75
2022/08/15 13:10:05;;;;;;;1.90;1.80;;;31.10;21.70;;;;;;10403036;28;20225;-76
2022/08/15 13:15:30;;;;;;;1.93;1.83;;;31.10;21.70;;;;;;10395447;28;20221;-76
2022/08/15 13:26:00;;;;;;;2.10;2.00;;;31.20;21.50;;;;;;10394554;28;20245;-76
2022/08/15 13:31:25;;;;;;;1.93;1.83;;;31.20;20.90;;;;;;10394968;28;20810;-75
2022/08/15 13:36:31;;;;;;;2.00;1.90;;;31.30;20.20;;;;;;10394295;28;20317;-75
2022/08/15 13:41:34;;;;;;;1.87;1.77;;;31.30;20.10;;;;;;10397785;28;20240;-77
2022/08/15 13:46:59;;;;;;;2.17;1.90;;;31.30;20.50;;;;;;10394221;28;20239;-76
2022/08/15 13:52:03;;;;;;;1.90;1.80;;;31.30;19.90;;;;;;10386935;28;20309;-76
2022/08/15 13:57:26;;;;;;;1.80;1.70;;;31.20;20.20;;;;;;10389293;28;20226;-79
2022/08/15 14:02:33;;;;;;;1.80;1.70;;;31.20;20.30;;;;;;10386635;28;20225;-76
2022/08/15 14:07:41;;;;;;;1.90;1.80;;;31.20;19.60;;;;;;10383595;28;20229;-77
2022/08/15 14:12:58;;;;;;;2.00;1.90;;;31.20;19.80;;;;;;10385953;28;20420;-76
2022/08/15 14:18:04;;;;;;;2.10;2.00;;;31.30;20.10;;;;;;10381017;28;20225;-77
2022/08/15 14:23:27;;;;;;;2.13;2.03;;;31.30;19.30;;;;;;10401487;28;20221;-78
2022/08/15 14:28:50;;;;;;;2.17;1.97;;;31.40;19.30;;;;;;10394569;28;20603;-78
2022/08/15 14:34:15;;;;;;;3.83;2.10;;;31.50;19.50;;;;;;10402166;28;20233;-78
2022/08/15 14:39:38;;;;;;;2.30;2.20;;;31.50;19.10;;;;;;10398798;28;20248;-76
2022/08/15 14:44:44;;;;;;;2.20;2.10;;;31.60;19.00;;;;;;10389178;28;20237;-78
2022/08/15 14:49:52;;;;;;;1.97;1.87;;;31.60;18.90;;;;;;10399476;28;21137;-77
2022/08/15 14:55:15;;;;;;;2.17;2.07;;;31.50;18.70;;;;;;10384975;28;20218;-76
2022/08/15 15:00:20;;;;;;;2.30;2.10;;;31.60;18.90;;;;;;10402641;28;20364;-78
2022/08/15 15:05:41;;;;;;;2.40;2.20;;;31.70;18.60;;;;;;10399763;28;20279;-76
2022/08/15 15:11:04;;;;;;;2.30;2.20;;;31.70;17.70;;;;;;10395566;28;20255;-80
2022/08/15 15:16:08;;;;;;;2.43;2.23;;;31.80;18.00;;;;;;10407437;28;20725;-77
2022/08/15 15:21:33;;;;;;;2.07;1.97;;;31.80;17.90;;;;;;10391253;28;20699;-77
2022/08/15 15:26:39;;;;;;;2.00;1.90;;;31.90;17.30;;;;;;10441667;28;20278;-76
2022/08/15 15:31:58;;;;;;;2.00;1.90;;;31.90;17.60;;;;;;10446853;28;20256;-77
2022/08/15 15:37:07;;;;;;;2.07;1.97;;;32.00;17.60;;;;;;10446306;28;20744;-76
2022/08/15 15:42:10;;;;;;;2.50;2.30;;;32.10;16.80;;;;;;10367364;28;20239;-76
2022/08/15 15:47:19;;;;;;;2.27;2.10;;;32.10;17.00;;;;;;10396696;28;20221;-76
2022/08/15 15:52:30;;;;;;;2.10;2.00;;;32.10;17.00;;;;;;10446112;28;20248;-76
2022/08/15 15:57:35;;;;;;;2.13;2.03;;;32.10;16.50;;;;;;10446220;28;20307;-76
2022/08/15 16:03:01;;;;;;;2.50;2.30;;;32.00;16.90;;;;;;10439197;28;20228;-77
2022/08/15 16:08:28;;;;;;;2.10;2.00;;;32.10;16.70;;;;;;10407124;28;20233;-77
2022/08/15 16:13:46;;;;;;;2.20;2.00;;;32.10;16.20;;;;;;10407800;28;20241;-76
2022/08/15 16:18:55;;;;;;;2.10;2.00;;;32.10;16.00;;;;;;10407764;28;20233;-77
2022/08/15 16:24:09;;;;;;;2.17;2.00;;;32.10;16.20;;;;;;10408000;28;20232;-77
2022/08/15 16:29:24;;;;;;;2.13;2.00;;;32.10;15.90;;;;;;10410468;28;20591;-77
2022/08/15 16:34:36;;;;;;;2.00;1.90;;;32.10;16.10;;;;;;10406488;28;20314;-77
2022/08/15 16:39:47;;;;;;;1.90;1.80;;;32.10;15.80;;;;;;10404931;28;20604;-77
2022/08/15 16:45:15;;;;;;;2.07;1.97;;;32.20;15.70;;;;;;10405026;28;20233;-77
2022/08/15 16:50:27;;;;;;;2.27;2.07;;;32.30;15.60;;;;;;10404352;28;20244;-77
2022/08/15 16:55:40;;;;;;;2.23;2.10;;;32.40;15.50;;;;;;10410094;28;20230;-77
2022/08/15 17:00:52;;;;;;;2.27;2.07;;;32.40;15.30;;;;;;10412376;28;20225;-76
2022/08/15 17:06:04;;;;;;;2.20;2.00;;;32.40;15.50;;;;;;10411351;28;20313;-76
2022/08/15 17:11:14;;;;;;;2.53;2.10;;;32.40;15.20;;;;;;10410771;28;20225;-77
2022/08/15 17:16:28;;;;;;;2.40;2.30;;;32.30;14.90;;;;;;10411481;28;20236;-77
2022/08/15 17:21:40;;;;;;;2.20;2.00;;;32.30;15.10;;;;;;10411074;28;20233;-77
2022/08/15 17:26:53;;;;;;;2.00;1.90;;;32.30;15.10;;;;;;10410451;28;20707;-77
2022/08/15 17:32:21;;;;;;;3.03;2.30;;;32.20;15.30;;;;;;10409960;28;20234;-76
2022/08/15 17:37:32;;;;;;;2.07;1.97;;;32.10;15.20;;;;;;10409448;28;20236;-77
2022/08/15 17:42:49;;;;;;;2.67;2.40;;;32.00;15.50;;;;;;10409717;28;20846;-76
2022/08/15 17:47:57;;;;;;;2.63;2.27;;;31.80;15.70;;;;;;10409865;28;20225;-77
2022/08/15 17:53:05;;;;;;;3.07;2.47;;;31.70;15.90;;;;;;10409409;28;20226;-76
2022/08/15 17:58:25;;;;;;;4.40;2.50;;;31.50;16.00;;;;;;10410355;28;20227;-76
2022/08/15 18:03:31;;;;;;;4.23;2.30;;;31.40;15.50;;;;;;10377577;28;20222;-75
2022/08/15 18:08:39;;;;;;;5.97;2.20;;;31.10;16.30;;;;;;10367491;28;20618;-75
2022/08/15 18:13:58;;;;;;;3.97;2.10;;;30.80;16.60;;;;;;10367744;28;20246;-74
2022/08/15 18:19:21;;;;;;;3.57;2.40;;;30.30;17.20;;;;;;10366618;28;20234;-74
2022/08/15 18:24:43;;;;;;;2.37;2.17;;;29.80;18.20;;;;;;10367351;28;20234;-76
2022/08/15 18:30:07;;;;;;;4.27;2.23;;;29.30;20.70;;;;;;10366873;28;20225;-76
2022/08/15 18:35:26;;;;;;;2.43;2.23;;;28.60;21.50;;;;;;10367169;28;20317;-77
2022/08/15 18:46:07;;;;;;;2.73;2.00;;;27.30;23.20;;;;;;10366282;28;20234;-76
2022/08/15 18:51:17;;;;;;;3.60;2.07;;;27.00;23.90;;;;;;10366011;28;20265;-76
2022/08/15 18:56:23;;;;;;;4.00;2.17;;;26.70;23.50;;;;;;10367695;28;20261;-76
2022/08/15 19:01:31;;;;;;;2.63;1.80;;;26.30;23.40;;;;;;10368335;28;20229;-77
2022/08/15 19:06:49;;;;;;;2.47;2.00;;;26.10;23.90;;;;;;10357419;28;20234;-76
2022/08/15 19:12:07;;;;;;;3.47;2.00;;;26.00;24.50;;;;;;10367556;28;20739;-77
2022/08/15 19:17:25;;;;;;;2.03;1.87;;;26.00;24.20;;;;;;10381033;28;20590;-77
2022/08/15 19:22:30;;;;;;;2.30;2.10;;;25.90;24.20;;;;;;10388013;28;20308;-80
2022/08/15 19:27:42;;;;;;;2.77;2.00;;;25.70;24.20;;;;;;10395160;28;20221;-78
2022/08/15 19:33:13;;;;;;;2.00;1.90;;;25.60;25.40;;;;;;10385822;28;20608;-78
2022/08/15 19:38:28;;;;;;;3.40;1.80;;;25.40;24.70;;;;;;10382658;28;20249;-79
2022/08/15 19:43:42;;;;;;;1.73;1.63;;;25.30;25.30;;;;;;10387539;28;20236;-76
2022/08/15 19:49:03;;;;;;;2.03;1.50;;;25.20;25.40;;;;;;10383390;28;20237;-79
2022/08/15 19:54:20;;;;;;;1.77;1.67;;;25.10;25.10;;;;;;10385260;28;20691;-75
2022/08/15 19:59:54;;;;;;;1.30;1.30;;;25.00;25.40;;;;;;10387802;28;20240;-75
2022/08/15 20:05:07;;;;;;;2.50;1.47;;;24.90;25.60;;;;;;10391502;28;20232;-75
2022/08/15 20:10:18;;;;;;;1.80;1.60;;;24.70;25.80;;;;;;10393528;28;20218;-76
2022/08/15 20:15:34;;;;;;;1.80;1.70;;;24.70;26.30;;;;;;10391363;28;20237;-75
2022/08/15 20:20:51;;;;;;;2.20;2.10;;;24.60;26.80;;;;;;10395627;28;20252;-75
2022/08/15 20:25:58;;;;;;;2.10;1.90;;;24.60;27.40;;;;;;10391339;28;20245;-75
2022/08/15 20:31:23;;;;;;;3.83;2.10;;;24.60;27.00;;;;;;10398461;28;20287;-75
2022/08/15 20:36:30;;;;;;;2.10;1.90;;;24.60;27.50;;;;;;10400126;28;20234;-75
2022/08/15 20:41:39;;;;;;;2.40;2.20;;;24.60;27.30;;;;;;10398204;28;20682;-75
2022/08/15 20:46:47;;;;;;;2.40;2.20;;;24.60;27.50;;;;;;10397088;28;20981;-75
2022/08/15 20:51:57;;;;;;;1.90;1.80;;;24.60;27.20;;;;;;10395808;28;20233;-75
2022/08/15 20:57:25;;;;;;;2.10;2.00;;;24.70;27.70;;;;;;10401897;28;20217;-75
2022/08/15 21:02:43;;;;;;;2.20;2.00;;;24.80;27.70;;;;;;10400248;28;20332;-75
2022/08/15 21:08:20;;;;;;;1.97;1.87;;;24.90;27.00;;;;;;10396680;28;20225;-75
2022/08/15 21:13:55;;;;;;;1.97;1.80;;;24.90;27.50;;;;;;10370530;28;20248;-75
2022/08/15 21:19:14;;;;;;;2.57;2.37;;;25.00;27.70;;;;;;10397123;28;20256;-75
2022/08/15 21:24:26;;;;;;;2.03;1.93;;;25.10;28.50;;;;;;10393756;28;20229;-75
2022/08/15 21:29:33;;;;;;;2.73;2.40;;;25.10;28.30;;;;;;10397957;28;20597;-75
2022/08/15 21:34:38;;;;;;;2.00;1.80;;;24.90;28.20;;;;;;10398270;28;20761;-75
2022/08/15 21:39:55;;;;;;;2.43;2.17;;;24.80;27.40;;;;;;10397625;28;20242;-75
2022/08/15 21:45:33;;;;;;;2.60;2.40;;;24.70;28.30;;;;;;10392088;28;20217;-75
2022/08/15 21:50:41;;;;;;;2.63;2.40;;;24.50;28.40;;;;;;10376005;28;20647;-75
2022/08/15 21:55:51;;;;;;;2.43;2.23;;;24.40;28.30;;;;;;10397608;28;20716;-75
2022/08/15 22:01:26;;;;;;;2.37;2.10;;;24.30;27.70;;;;;;10398060;28;20221;-75
2022/08/15 22:06:32;;;;;;;2.30;2.20;;;24.20;28.10;;;;;;10397974;28;20217;-75
2022/08/15 22:11:42;;;;;;;2.40;2.20;;;24.10;27.80;;;;;;10394794;28;20230;-75
2022/08/15 22:16:50;;;;;;;2.60;2.50;;;23.90;27.90;;;;;;10397051;28;20245;-75
2022/08/15 22:22:00;;;;;;;2.37;2.17;;;23.80;27.90;;;;;;10398463;28;20221;-75
2022/08/15 22:27:10;;;;;;;2.73;2.30;;;23.70;27.80;;;;;;10397971;28;20293;-75
2022/08/15 22:32:20;;;;;;;2.40;2.20;;;23.80;27.90;;;;;;10389425;28;20245;-76
2022/08/15 22:37:41;;;;;;;2.43;2.27;;;23.80;28.40;;;;;;10393602;28;20252;-76
2022/08/15 22:42:51;;;;;;;2.30;2.10;;;23.80;27.90;;;;;;10393215;28;20218;-75
2022/08/15 22:47:56;;;;;;;2.53;2.33;;;23.90;28.10;;;;;;10395967;28;20229;-75
2022/08/15 22:53:01;;;;;;;2.10;2.00;;;24.00;28.10;;;;;;10389861;28;20268;-75
2022/08/15 22:58:11;;;;;;;2.50;2.30;;;24.00;28.10;;;;;;10385515;28;20236;-75
2022/08/15 23:03:20;;;;;;;2.70;2.50;;;24.00;28.00;;;;;;10393568;28;20233;-75
2022/08/15 23:08:32;;;;;;;2.67;2.47;;;24.00;28.30;;;;;;10394834;28;20241;-75
2022/08/15 23:13:39;;;;;;;2.17;2.03;;;23.90;28.70;;;;;;10388859;28;20252;-75
2022/08/15 23:19:11;;;;;;;3.50;2.60;;;23.80;28.60;;;;;;10390698;28;20618;-75
2022/08/15 23:24:19;;;;;;;2.20;2.10;;;23.70;28.80;;;;;;10388724;28;20253;-75
2022/08/15 23:29:41;;;;;;;2.63;2.43;;;23.70;28.30;;;;;;10393633;28;20615;-75
2022/08/15 23:34:51;;;;;;;2.57;2.40;;;23.70;28.80;;;;;;10402675;28;20273;-75
2022/08/15 23:40:02;;;;;;;3.17;2.47;;;23.80;29.10;;;;;;10386701;28;20226;-75
2022/08/15 23:45:07;;;;;;;2.57;2.37;;;23.80;29.00;;;;;;10396489;28;20313;-75
2022/08/15 23:50:18;;;;;;;2.17;2.07;;;23.80;28.70;;;;;;10393746;28;20282;-75
2022/08/15 23:55:25;;;;;;;2.00;1.90;;;23.80;29.10;;;;;;10386397;28;22566;-75
